Time;durP1;ratioP1;P1;durP2;ratioP2;P2;SDS_P1;SDS_P2;PMS_P1;PMS_P2;Temp;Humidity;BMP_temperature;BMP_pressure;BME280_temperature;BME280_humidity;BME280_pressure;Samples;Min_cycle;Max_cycle;Signal;HPM_P1;HPM_P2
2021/12/23 00:01:23;;;;;;;10.98;9.07;;;;;;;7.18;72.75;99905.47;6251974;22;20038;-76
2021/12/23 00:03:49;;;;;;;16.63;9.63;;;;;;;7.23;72.71;99919.94;6248283;23;20012;-75
2021/12/23 00:06:17;;;;;;;18.55;10.20;;;;;;;7.18;72.75;99895.41;6240834;23;20012;-74
2021/12/23 00:08:43;;;;;;;11.23;8.27;;;;;;;7.26;73.19;99913.19;6238207;23;20016;-75
2021/12/23 00:11:08;;;;;;;10.90;8.93;;;;;;;7.29;72.81;99907.22;6241211;22;20049;-75
2021/12/23 00:13:48;;;;;;;11.50;8.68;;;;;;;7.30;72.82;99917.00;6243321;22;20012;-84
2021/12/23 00:16:18;;;;;;;14.32;9.68;;;;;;;7.32;73.04;99917.59;6222203;23;20015;-80
2021/12/23 00:18:49;;;;;;;17.42;10.43;;;;;;;7.26;72.82;99891.44;6201231;23;20027;-81
2021/12/23 00:24:01;;;;;;;16.70;9.02;;;;;;;7.36;72.77;99907.84;6244176;23;20070;-79
2021/12/23 00:26:29;;;;;;;13.05;8.90;;;;;;;7.31;72.85;99889.53;6218933;23;20019;-80
2021/12/23 00:29:09;;;;;;;;;;;;;;;;;;;;;
2021/12/23 00:31:34;;;;;;;14.75;9.45;;;;;;;7.32;72.75;99880.31;6246690;23;20075;-77
2021/12/23 00:34:00;;;;;;;15.38;9.98;;;;;;;7.34;72.86;99897.22;6247342;23;19996;-79
2021/12/23 00:36:38;;;;;;;19.20;11.18;;;;;;;7.35;73.00;99889.88;6247554;23;20004;-79
2021/12/23 00:39:06;;;;;;;21.63;10.95;;;;;;;7.46;72.21;99902.50;6248394;23;20419;-80
2021/12/23 00:41:33;;;;;;;11.88;9.50;;;;;;;7.36;72.31;99887.97;6250040;22;20000;-78
2021/12/23 00:43:59;;;;;;;19.75;9.95;;;;;;;7.39;72.95;99893.72;6250885;23;20034;-78
2021/12/23 00:46:25;;;;;;;13.82;9.15;;;;;;;7.32;73.04;99884.94;6257110;23;20004;-79
2021/12/23 00:48:53;;;;;;;14.57;10.70;;;;;;;7.33;73.28;99890.13;6252133;23;20111;-80
2021/12/23 00:51:21;;;;;;;16.20;10.18;;;;;;;7.31;73.26;99884.09;6235804;22;20012;-79
2021/12/23 00:53:52;;;;;;;14.88;9.68;;;;;;;7.34;72.95;99877.34;6203998;23;20011;-77
2021/12/23 00:59:09;;;;;;;12.18;7.82;;;;;;;7.42;72.64;99868.72;6238382;22;20004;-77
2021/12/23 01:01:35;;;;;;;11.07;8.52;;;;;;;7.29;73.53;99852.84;6255681;22;20023;-79
2021/12/23 01:04:01;;;;;;;11.93;9.20;;;;;;;7.48;72.88;99878.56;6262246;22;20004;-80
2021/12/23 01:06:29;;;;;;;12.85;9.25;;;;;;;7.37;73.21;99870.56;6256302;23;20067;-79
2021/12/23 01:08:58;;;;;;;20.70;10.07;;;;;;;7.46;72.82;99863.56;6253182;22;20019;-76
2021/12/23 01:11:32;;;;;;;9.98;8.68;;;;;;;7.48;73.31;99873.13;6251522;23;20010;-79
2021/12/23 01:14:03;;;;;;;14.95;8.88;;;;;;;7.45;73.17;99851.06;6233891;23;20435;-78
2021/12/23 01:23:12;;;;;;;15.27;8.98;;;;;;;7.50;73.58;99865.53;6131434;23;20050;-77
2021/12/23 01:25:39;;;;;;;13.02;9.02;;;;;;;7.49;72.95;99847.56;6129906;23;20088;-78
2021/12/23 01:28:06;;;;;;;10.38;7.47;;;;;;;7.44;72.90;99844.78;6172631;23;20087;-77
2021/12/23 01:30:33;;;;;;;8.80;7.50;;;;;;;7.47;72.90;99841.53;6250605;22;20038;-76
2021/12/23 01:33:09;;;;;;;11.77;8.65;;;;;;;7.48;73.13;99845.91;6253659;23;20008;-78
2021/12/23 01:35:35;;;;;;;;;;;;;;;7.63;72.50;99855.28;6251928;23;20011;-79
2021/12/23 01:38:13;;;;;;;9.07;8.18;;;;;;;7.57;73.20;99856.31;6226353;23;20218;-78
2021/12/23 01:43:54;;;;;;;19.92;10.57;;;;;;;7.45;73.31;99824.66;6210386;23;20378;-80
2021/12/23 01:46:29;;;;;;;10.20;9.20;;;;;;;7.45;72.56;99832.84;6257478;23;20551;-78
2021/12/23 01:49:12;;;;;;;15.45;9.57;;;;;;;7.42;73.49;99819.75;6256947;23;20032;-78
2021/12/23 01:51:37;;;;;;;12.60;9.65;;;;;;;7.54;73.39;99848.69;6260993;23;20023;-78
2021/12/23 01:54:06;;;;;;;11.60;9.48;;;;;;;7.56;73.00;99838.34;6234791;23;20769;-78
2021/12/23 01:56:31;;;;;;;13.02;9.55;;;;;;;7.61;73.13;99838.41;6234799;23;20020;-79
2021/12/23 01:58:59;;;;;;;12.32;7.90;;;;;;;7.64;73.54;99832.44;6262490;23;20015;-79
2021/12/23 02:01:25;;;;;;;10.38;7.53;;;;;;;7.68;73.07;99834.38;6265758;22;20075;-79
2021/12/23 02:03:51;;;;;;;8.00;7.20;;;;;;;7.67;73.00;99810.13;6262742;22;20338;-80
2021/12/23 02:06:16;;;;;;;11.52;9.43;;;;;;;7.69;73.63;99819.69;6260410;22;20004;-78
2021/12/23 02:08:43;;;;;;;9.00;7.85;;;;;;;7.68;72.98;99806.31;6260859;22;20083;-78
2021/12/23 02:11:13;;;;;;;10.90;8.27;;;;;;;7.79;73.33;99823.56;6259665;22;20014;-81
2021/12/23 02:13:44;;;;;;;17.92;10.02;;;;;;;7.69;73.20;99791.63;6263683;22;20007;-79
2021/12/23 02:16:09;;;;;;;14.30;10.60;;;;;;;7.82;73.17;99820.31;6262499;22;20003;-80
2021/12/23 02:18:36;;;;;;;21.55;12.05;;;;;;;7.75;73.38;99812.34;6263292;22;20008;-80
2021/12/23 02:21:04;;;;;;;17.40;11.07;;;;;;;7.71;73.55;99805.81;6283417;22;20014;-79
2021/12/23 02:23:29;;;;;;;16.85;10.82;;;;;;;7.77;73.63;99799.31;6262962;22;20007;-76
2021/12/23 02:25:59;;;;;;;13.63;9.65;;;;;;;7.83;73.95;99819.22;6288637;22;20018;-79
2021/12/23 02:28:26;;;;;;;22.23;12.43;;;;;;;7.80;73.76;99806.97;6236501;22;20073;-74
2021/12/23 02:30:52;;;;;;;17.92;11.65;;;;;;;7.72;74.24;99791.09;6285783;22;20081;-74
2021/12/23 02:33:24;;;;;;;16.13;11.77;;;;;;;7.76;74.32;99797.66;6262297;22;20090;-75
2021/12/23 02:35:53;;;;;;;19.90;13.07;;;;;;;7.71;74.41;99796.81;6236283;22;20000;-74
2021/12/23 02:38:22;;;;;;;24.33;11.85;;;;;;;7.71;74.92;99794.94;6258783;22;20046;-76
2021/12/23 02:40:47;;;;;;;27.45;12.32;;;;;;;7.61;75.00;99783.97;6260458;22;20035;-74
2021/12/23 02:43:22;;;;;;;28.27;13.38;;;;;;;7.58;75.27;99777.16;6260361;22;20008;-75
2021/12/23 02:46:21;;;;;;;;;;;;;;;;;;;;;
2021/12/23 02:48:55;;;;;;;28.40;13.68;;;;;;;7.62;76.01;99769.28;6286550;22;20019;-75
2021/12/23 02:51:30;;;;;;;27.98;14.00;;;;;;;7.68;75.87;99776.38;6287516;22;20004;-74
2021/12/23 02:53:58;;;;;;;;;;;;;;;7.70;76.15;99768.78;6258688;22;20051;-74
2021/12/23 02:56:24;;;;;;;15.52;10.85;;;;;;;7.69;76.22;99775.31;6284784;22;19910;-75
2021/12/23 02:58:50;;;;;;;22.65;13.48;;;;;;;7.62;76.43;99769.28;6259971;22;20062;-75
2021/12/23 03:01:21;;;;;;;19.65;12.25;;;;;;;7.66;76.10;99770.41;6259742;22;20087;-76
2021/12/23 03:03:52;;;;;;;28.73;15.57;;;;;;;7.72;76.58;99763.88;6260724;22;20007;-75
2021/12/23 03:06:23;;;;;;;24.65;14.43;;;;;;;7.79;77.09;99769.13;6259392;22;20008;-76
2021/12/23 03:09:03;;;;;;;25.33;14.00;;;;;;;7.75;76.65;99763.38;6255901;22;20048;-78
2021/12/23 03:11:33;;;;;;;26.85;14.55;;;;;;;7.79;77.60;99759.03;6258197;22;20053;-77
2021/12/23 03:14:01;;;;;;;25.02;13.82;;;;;;;7.88;77.35;99769.44;6255837;22;20440;-76
2021/12/23 03:16:38;;;;;;;38.33;16.95;;;;;;;7.85;77.19;99757.16;6231836;22;20011;-77
2021/12/23 03:19:14;;;;;;;28.48;15.55;;;;;;;7.93;77.70;99753.09;6255999;22;20034;-76
2021/12/23 03:21:44;;;;;;;26.35;16.08;;;;;;;8.00;77.21;99748.25;6257389;22;20007;-77
2021/12/23 03:24:12;;;;;;;29.75;16.50;;;;;;;7.99;77.23;99741.19;6256034;22;20035;-75
2021/12/23 03:26:51;;;;;;;;;;;;;;;;;;;;;
2021/12/23 03:29:19;;;;;;;25.83;14.40;;;;;;;7.99;77.24;99725.66;6285833;22;20078;-75
2021/12/23 03:31:47;;;;;;;29.90;15.25;;;;;;;8.02;77.71;99724.31;6258932;22;20004;-74
2021/12/23 03:34:13;;;;;;;36.22;18.45;;;;;;;8.09;77.44;99722.16;6267927;22;19987;-76
2021/12/23 03:36:41;;;;;;;26.20;14.13;;;;;;;8.21;78.06;99738.28;6287395;22;20006;-76
2021/12/23 03:39:07;;;;;;;39.45;18.08;;;;;;;8.18;77.78;99717.03;6283382;22;19999;-69
2021/12/23 03:41:33;;;;;;;34.53;18.63;;;;;;;8.17;77.76;99710.72;6276425;22;20033;-71
2021/12/23 03:43:58;;;;;;;20.27;14.32;;;;;;;8.21;78.45;99703.66;6248016;22;20008;-71
2021/12/23 03:46:24;;;;;;;26.60;15.30;;;;;;;8.28;78.22;99697.97;6275753;22;20003;-70
2021/12/23 03:48:50;;;;;;;34.63;17.85;;;;;;;8.36;77.82;99707.53;6223227;22;20492;-70
2021/12/23 03:51:15;;;;;;;30.45;16.45;;;;;;;8.42;78.38;99689.28;6274646;22;20418;-70
2021/12/23 03:53:46;;;;;;;21.33;12.65;;;;;;;8.48;78.28;99689.03;6243775;22;20007;-70
2021/12/23 03:56:11;;;;;;;32.38;16.73;;;;;;;8.40;78.24;99670.50;6274829;22;20691;-71
2021/12/23 03:58:37;;;;;;;40.88;18.83;;;;;;;8.58;78.32;99695.63;6270754;22;20004;-70
2021/12/23 04:01:04;;;;;;;32.58;17.67;;;;;;;8.54;78.53;99685.25;6250788;22;20015;-70
2021/12/23 04:03:33;;;;;;;41.20;17.88;;;;;;;8.61;78.52;99684.16;6247310;22;20035;-72
2021/12/23 04:06:20;;;;;;;40.50;20.17;;;;;;;8.61;78.37;99678.72;6252606;22;20352;-75
2021/12/23 04:09:04;;;;;;;46.50;21.67;;;;;;;8.58;78.96;99687.44;6286012;22;20035;-72
2021/12/23 04:11:32;;;;;;;45.03;20.60;;;;;;;8.65;78.49;99694.25;6255972;22;20015;-73
2021/12/23 04:13:58;;;;;;;44.53;22.38;;;;;;;8.71;78.80;99708.72;6276281;22;20008;-73
2021/12/23 04:16:28;;;;;;;48.58;20.42;;;;;;;8.72;79.01;99710.34;6232251;22;20337;-72
2021/12/23 04:18:54;;;;;;;34.78;19.95;;;;;;;8.72;79.28;99704.91;6283517;22;20004;-72
2021/12/23 04:21:20;;;;;;;36.65;19.17;;;;;;;8.72;78.87;99691.28;6283943;22;20010;-72
2021/12/23 04:23:53;;;;;;;53.95;24.38;;;;;;;8.70;79.04;99701.63;6259417;22;20007;-74
2021/12/23 04:26:18;;;;;;;44.03;22.15;;;;;;;8.62;79.44;99688.53;6259915;22;20019;-74
2021/12/23 04:28:46;;;;;;;44.92;22.55;;;;;;;8.73;79.43;99701.91;6258022;22;20007;-73
2021/12/23 04:31:25;;;;;;;46.58;21.33;;;;;;;8.66;79.80;99695.06;6281673;22;20003;-73
2021/12/23 04:33:52;;;;;;;42.20;20.92;;;;;;;8.71;79.61;99689.63;6263755;22;20004;-76
2021/12/23 04:36:23;;;;;;;49.95;25.02;;;;;;;8.64;80.28;99680.91;6261065;22;20072;-76
2021/12/23 04:38:49;;;;;;;46.92;21.27;;;;;;;8.71;80.07;99684.19;6263278;22;19999;-75
2021/12/23 04:41:14;;;;;;;45.85;23.88;;;;;;;8.79;80.21;99689.09;6235141;22;20453;-77
2021/12/23 04:43:40;;;;;;;36.78;18.92;;;;;;;8.77;80.09;99680.34;6260243;22;20008;-76
2021/12/23 04:46:05;;;;;;;39.97;20.40;;;;;;;8.81;80.36;99692.34;6257926;22;20032;-76
2021/12/23 04:48:32;;;;;;;45.58;21.92;;;;;;;8.83;80.20;99701.06;6258515;22;20498;-76
2021/12/23 04:50:59;;;;;;;48.30;23.50;;;;;;;8.80;80.56;99701.63;6260431;22;20004;-76
2021/12/23 04:53:30;;;;;;;55.20;23.85;;;;;;;8.77;80.17;99709.53;6231588;22;20012;-77
2021/12/23 04:55:58;;;;;;;51.75;24.25;;;;;;;8.69;80.44;99700.00;6234468;22;20008;-78
2021/12/23 04:58:24;;;;;;;51.13;22.20;;;;;;;8.70;80.31;99702.44;6287890;22;20221;-78
2021/12/23 05:00:51;;;;;;;43.60;22.15;;;;;;;8.71;80.77;99687.72;6263789;22;20011;-77
2021/12/23 05:03:26;;;;;;;31.77;18.60;;;;;;;8.81;80.13;99678.72;6259374;22;20030;-77
2021/12/23 05:05:52;;;;;;;31.67;16.75;;;;;;;8.84;80.11;99664.53;6262912;22;20067;-76
2021/12/23 05:08:23;;;;;;;23.75;13.43;;;;;;;8.97;80.47;99665.09;6260046;22;20677;-75
2021/12/23 05:10:49;;;;;;;17.98;12.48;;;;;;;9.00;80.11;99664.56;6259922;22;20014;-76
2021/12/23 05:13:18;;;;;;;49.08;22.77;;;;;;;8.97;80.40;99660.47;6262159;22;20007;-76
2021/12/23 05:15:43;;;;;;;37.50;20.60;;;;;;;8.96;79.95;99658.81;6289247;22;20015;-76
2021/12/23 05:18:09;;;;;;;30.75;16.58;;;;;;;9.12;80.12;99667.81;6234082;22;20011;-76
2021/12/23 05:20:45;;;;;;;30.58;17.45;;;;;;;9.13;80.30;99663.97;6260232;22;20030;-75
2021/12/23 05:23:10;;;;;;;30.33;16.88;;;;;;;9.16;79.92;99657.97;6262309;22;19995;-76
2021/12/23 05:25:36;;;;;;;24.08;14.27;;;;;;;9.19;79.93;99662.88;6259134;22;20086;-76
2021/12/23 05:28:01;;;;;;;24.00;15.68;;;;;;;9.18;79.56;99647.59;6265918;22;20004;-79
2021/12/23 05:30:27;;;;;;;29.30;15.13;;;;;;;9.09;79.45;99627.44;6265990;22;20034;-79
2021/12/23 05:32:53;;;;;;;39.00;19.60;;;;;;;9.20;79.32;99639.97;6240596;22;20086;-78
2021/12/23 05:35:27;;;;;;;33.08;16.92;;;;;;;9.18;80.02;99642.13;6264209;22;20003;-77
2021/12/23 05:37:53;;;;;;;32.90;19.67;;;;;;;9.28;79.47;99654.16;6262777;22;19990;-71
2021/12/23 05:40:32;;;;;;;33.13;18.58;;;;;;;9.25;79.82;99639.94;6284297;22;20019;-70
2021/12/23 05:42:58;;;;;;;44.78;21.27;;;;;;;9.26;79.92;99646.25;6284386;22;20043;-70
2021/12/23 05:45:27;;;;;;;35.80;19.83;;;;;;;9.18;79.88;99647.59;6284740;22;20055;-72
2021/12/23 05:47:52;;;;;;;43.92;22.05;;;;;;;9.12;79.38;99645.97;6258694;22;20003;-70
2021/12/23 05:50:23;;;;;;;49.50;23.45;;;;;;;9.17;79.60;99667.81;6232459;22;20016;-73
2021/12/23 05:52:51;;;;;;;43.45;21.63;;;;;;;9.07;79.99;99640.53;6229746;22;20004;-72
2021/12/23 05:55:17;;;;;;;31.02;16.17;;;;;;;9.16;79.63;99630.69;6285460;22;20410;-72
2021/12/23 05:57:46;;;;;;;21.77;14.30;;;;;;;9.21;79.91;99630.69;6285703;22;20074;-73
2021/12/23 06:00:24;;;;;;;26.63;15.15;;;;;;;9.30;80.13;99638.31;6256652;22;20012;-73
2021/12/23 06:02:50;;;;;;;26.55;14.63;;;;;;;9.21;79.46;99619.78;6234869;22;20019;-72
2021/12/23 06:05:17;;;;;;;20.92;13.73;;;;;;;9.34;79.40;99625.75;6221706;23;20000;-73
2021/12/23 06:07:45;;;;;;;25.83;16.63;;;;;;;9.32;79.46;99614.31;6255890;23;20043;-72
2021/12/23 06:10:18;;;;;;;23.20;16.10;;;;;;;9.37;79.54;99612.34;6225720;23;20004;-71
2021/12/23 06:12:45;;;;;;;29.42;16.63;;;;;;;9.32;79.19;99600.66;6230887;23;20008;-70
2021/12/23 06:15:12;;;;;;;29.70;17.65;;;;;;;9.24;79.37;99575.59;6247464;23;20055;-70
2021/12/23 06:17:42;;;;;;;40.83;20.33;;;;;;;9.31;79.54;99594.38;6252146;23;20004;-70
2021/12/23 06:20:16;;;;;;;49.65;20.25;;;;;;;9.24;79.27;99591.94;6224026;23;20003;-70
2021/12/23 06:22:45;;;;;;;33.47;18.35;;;;;;;9.31;79.61;99596.28;6226471;23;20012;-71
2021/12/23 06:25:12;;;;;;;44.40;20.63;;;;;;;9.22;79.57;99585.94;6254895;23;20000;-71
2021/12/23 06:27:39;;;;;;;31.15;18.67;;;;;;;9.17;79.45;99585.13;6253897;23;20301;-71
2021/12/23 06:33:03;;;;;;;22.90;13.75;;;;;;;9.20;79.87;99604.50;6264939;23;20012;-72
2021/12/23 06:35:33;;;;;;;22.50;13.80;;;;;;;9.20;79.72;99590.88;6232694;23;20027;-71
2021/12/23 06:38:05;;;;;;;33.05;16.58;;;;;;;9.17;79.31;99585.97;6252598;23;20000;-71
2021/12/23 06:40:31;;;;;;;42.28;20.02;;;;;;;9.29;79.82;99603.91;6254641;23;20004;-71
2021/12/23 06:42:57;;;;;;;50.30;21.20;;;;;;;9.15;79.59;99590.06;6227048;23;20023;-72
2021/12/23 06:45:22;;;;;;;43.75;21.95;;;;;;;9.10;79.56;99593.63;6225188;23;20004;-70
2021/12/23 06:47:57;;;;;;;36.80;19.35;;;;;;;9.11;79.97;99587.06;6252319;23;20004;-72
2021/12/23 06:50:25;;;;;;;43.72;20.88;;;;;;;9.14;79.92;99602.91;6225049;23;20029;-71
2021/12/23 06:52:53;;;;;;;37.88;19.23;;;;;;;8.98;79.48;99588.47;6252531;23;20763;-71
2021/12/23 06:55:19;;;;;;;38.35;19.23;;;;;;;9.00;79.94;99580.00;6256431;23;19999;-70
2021/12/23 06:57:45;;;;;;;35.22;18.70;;;;;;;9.09;79.83;99613.81;6235379;23;19991;-73
2021/12/23 07:00:27;;;;;;;41.10;18.52;;;;;;;9.11;79.79;99606.16;6231210;23;20004;-71
2021/12/23 07:02:53;;;;;;;49.47;22.23;;;;;;;8.97;80.36;99580.56;6282444;22;20014;-72
2021/12/23 07:05:22;;;;;;;44.38;21.90;;;;;;;8.97;80.15;99581.38;6288136;22;20003;-75
2021/12/23 07:10:20;;;;;;;48.70;20.85;;;;;;;8.97;80.36;99591.47;6282158;22;20011;-71
2021/12/23 07:12:47;;;;;;;41.40;20.85;;;;;;;8.93;80.31;99582.22;6260044;22;20553;-70
2021/12/23 07:15:13;;;;;;;48.65;21.00;;;;;;;8.95;80.68;99588.19;6251143;22;20188;-69
2021/12/23 07:17:39;;;;;;;47.90;22.25;;;;;;;8.87;80.47;99584.94;6254363;22;20083;-69
2021/12/23 07:20:06;;;;;;;39.03;20.13;;;;;;;8.88;80.67;99583.84;6273977;22;20011;-70
2021/12/23 07:22:32;;;;;;;39.47;20.35;;;;;;;8.95;80.48;99605.38;6253873;22;20004;-72
2021/12/23 07:25:01;;;;;;;39.22;19.17;;;;;;;8.91;80.42;99580.56;6287149;22;20011;-73
2021/12/23 07:27:27;;;;;;;33.67;17.50;;;;;;;8.96;80.42;99584.38;6288141;22;20085;-71
2021/12/23 07:29:52;;;;;;;34.20;18.42;;;;;;;8.96;80.48;99582.47;6258450;22;20026;-72
2021/12/23 07:32:20;;;;;;;39.92;20.75;;;;;;;9.00;80.16;99590.91;6253551;22;20003;-70
2021/12/23 07:34:48;;;;;;;41.00;20.20;;;;;;;8.97;80.13;99583.28;6281528;22;20102;-71
2021/12/23 07:37:14;;;;;;;41.00;20.10;;;;;;;9.07;80.55;99602.38;6280897;22;20074;-72
2021/12/23 07:39:42;;;;;;;35.15;19.00;;;;;;;9.11;80.69;99591.69;6260284;22;20019;-72
2021/12/23 07:42:15;;;;;;;31.27;16.60;;;;;;;9.04;80.67;99575.66;6285463;22;20008;-70
2021/12/23 07:44:55;;;;;;;27.85;16.05;;;;;;;9.06;80.37;99562.53;6281472;22;20027;-71
2021/12/23 07:47:23;;;;;;;25.55;15.68;;;;;;;9.14;80.47;99570.16;6276646;22;20000;-70
2021/12/23 07:49:48;;;;;;;37.10;19.13;;;;;;;9.12;80.53;99572.34;6254033;22;20428;-71
2021/12/23 07:52:17;;;;;;;39.28;17.80;;;;;;;9.10;81.00;99574.53;6252108;22;20030;-70
2021/12/23 07:55:24;;;;;;;33.97;20.33;;;;;;;9.17;80.62;99585.97;6268841;22;20000;-70
2021/12/23 07:58:42;;;;;;;;;;;;;;;;;;;;;
2021/12/23 08:01:08;;;;;;;41.25;20.67;;;;;;;9.09;80.79;99584.59;6286695;22;20034;-77
2021/12/23 08:24:09;;;;;;;45.28;21.95;;;;;;;8.89;82.00;99563.69;6127634;23;20064;-79
2021/12/23 08:30:31;;;;;;;45.30;23.15;;;;;;;8.91;82.38;99583.28;6278409;22;20019;-79
2021/12/23 08:33:49;;;;;;;50.40;22.45;;;;;;;8.87;82.05;99574.03;6165196;23;20021;-77
2021/12/23 08:44:11;;;;;;;45.45;21.30;;;;;;;9.13;82.59;99595.78;6105850;23;20025;-73
2021/12/23 08:47:20;;;;;;;;;;;;;;;;;;;;;
2021/12/23 09:07:51;;;;;;;45.28;22.98;;;;;;;9.34;83.40;99612.09;6127433;23;20024;-74
2021/12/23 09:10:30;;;;;;;59.75;30.65;;;;;;;9.35;83.12;99602.84;6179963;22;20091;-73
2021/12/23 09:13:51;;;;;;;48.63;25.33;;;;;;;9.43;82.88;99608.53;6259820;22;20330;-73
2021/12/23 09:22:52;;;;;;;;;;;;;;;9.52;82.88;99607.94;6136547;22;20011;-73
2021/12/23 09:25:30;;;;;;;50.05;20.02;;;;;;;9.43;83.13;99594.88;6286139;22;19954;-72
2021/12/23 09:28:29;;;;;;;45.10;19.73;;;;;;;9.54;83.28;99606.56;6287713;22;20082;-72
2021/12/23 09:33:40;;;;;;;39.55;18.65;;;;;;;9.50;83.05;99594.56;6283887;22;20019;-74
2021/12/23 09:36:13;;;;;;;43.53;20.15;;;;;;;9.51;83.72;99585.31;6286665;22;19999;-75
2021/12/23 09:38:38;;;;;;;44.38;18.55;;;;;;;9.59;83.43;99592.91;6260192;22;20010;-74
2021/12/23 09:41:21;;;;;;;54.78;20.23;;;;;;;9.54;83.05;99578.47;6259858;22;20032;-74
2021/12/23 09:43:49;;;;;;;31.23;17.73;;;;;;;9.57;83.53;99584.19;6286163;22;20082;-75
2021/12/23 09:46:26;;;;;;;34.25;17.13;;;;;;;9.63;83.57;99592.34;6252847;23;20020;-74
2021/12/23 09:48:54;;;;;;;45.05;19.60;;;;;;;9.47;83.91;99578.75;6255844;23;20000;-74
2021/12/23 09:51:21;;;;;;;28.63;15.60;;;;;;;9.61;83.47;99595.38;6254571;23;20008;-74
2021/12/23 09:54:17;;;;;;;35.72;15.77;;;;;;;9.67;83.80;99593.44;6251962;23;20008;-74
2021/12/23 09:56:43;;;;;;;23.05;14.65;;;;;;;9.68;83.78;99582.22;6244924;22;20004;-73
2021/12/23 09:59:54;;;;;;;24.33;12.23;;;;;;;9.78;83.90;99578.59;6255412;22;20038;-74
2021/12/23 10:09:40;;;;;;;16.50;10.55;;;;;;;9.99;83.54;99562.09;6130131;23;20014;-73
2021/12/23 10:39:04;;;;;;;;;;;;;;;;;;;;;
2021/12/23 10:49:58;;;;;;;;;;;;;;;;;;;;;
2021/12/23 10:53:39;;;;;;;;;;;;;;;;;;;;;
2021/12/23 10:59:37;;;;;;;;;;;;;;;;;;;;;
2021/12/23 12:09:25;;;;;;;4.47;4.28;;;;;;;10.69;84.00;99459.88;5968156;24;20073;-76
2021/12/23 12:19:57;;;;;;;5.93;5.25;;;;;;;10.65;84.67;99479.59;5884716;24;20056;-75
2021/12/23 12:30:21;;;;;;;4.22;3.92;;;;;;;10.68;84.68;99463.72;5786479;24;20513;-73
2021/12/23 12:32:37;;;;;;;4.80;4.40;;;;;;;10.64;84.36;99453.38;5792988;24;20026;-76
2021/12/23 12:35:19;;;;;;;8.20;4.28;;;;;;;10.59;84.45;99461.63;5879101;24;20016;-75
2021/12/23 12:37:50;;;;;;;4.60;4.30;;;;;;;10.63;84.78;99470.03;6010940;23;20142;-75
2021/12/23 12:40:28;;;;;;;4.35;4.05;;;;;;;10.55;84.49;99455.09;6158585;23;20112;-76
2021/12/23 12:43:01;;;;;;;4.28;3.92;;;;;;;10.51;85.38;99455.97;6242487;22;20035;-77
2021/12/23 12:45:28;;;;;;;10.82;4.55;;;;;;;10.65;84.88;99465.91;6259139;22;20071;-75
2021/12/23 12:48:24;;;;;;;6.10;3.90;;;;;;;10.64;84.87;99463.47;6285430;22;20000;-73
2021/12/23 12:51:00;;;;;;;3.67;3.58;;;;;;;10.59;84.96;99439.75;6264243;22;20461;-74
2021/12/23 12:54:02;;;;;;;4.32;4.03;;;;;;;10.69;84.78;99454.41;6255644;22;20067;-77
2021/12/23 12:56:29;;;;;;;3.72;3.45;;;;;;;10.69;84.97;99448.94;6258296;22;20583;-75
2021/12/23 12:58:57;;;;;;;4.00;3.75;;;;;;;10.77;85.21;99451.03;6234469;22;20442;-76
2021/12/23 13:01:37;;;;;;;5.47;4.45;;;;;;;10.78;85.25;99441.75;6234535;22;20111;-74
2021/12/23 13:04:44;;;;;;;3.75;3.45;;;;;;;10.79;85.57;99433.25;6259200;22;19999;-75
2021/12/23 13:21:05;;;;;;;2.53;2.42;;;;;;;11.04;85.12;99395.75;6288000;22;20020;-72
2021/12/23 13:23:45;;;;;;;6.13;2.85;;;;;;;11.11;84.74;99395.34;6259843;22;20016;-76
2021/12/23 13:26:15;;;;;;;3.03;2.83;;;;;;;11.17;84.54;99394.19;6256885;22;20007;-76
2021/12/23 13:29:06;;;;;;;3.00;2.63;;;;;;;11.20;84.45;99410.03;6261228;22;20004;-76
2021/12/23 13:31:34;;;;;;;2.53;2.42;;;;;;;11.16;84.94;99398.03;6266248;22;20026;-76
2021/12/23 13:34:41;;;;;;;3.45;3.25;;;;;;;11.18;84.67;99390.34;6258422;22;20004;-76
2021/12/23 13:37:09;;;;;;;2.90;2.70;;;;;;;11.13;84.91;99393.97;6248412;22;20004;-76
2021/12/23 13:39:48;;;;;;;3.47;3.28;;;;;;;11.15;84.96;99390.94;6261339;22;20004;-76
2021/12/23 13:42:33;;;;;;;3.58;2.80;;;;;;;11.15;84.86;99385.44;6260082;22;20009;-76
2021/12/23 13:45:05;;;;;;;3.90;3.65;;;;;;;10.97;85.24;99352.31;6260399;22;20086;-76
2021/12/23 13:47:36;;;;;;;4.55;4.20;;;;;;;11.01;85.04;99358.03;6285534;22;20011;-75
2021/12/23 13:53:45;;;;;;;;;;;;;;;;;;;;;
2021/12/23 13:59:40;;;;;;;3.88;2.55;;;;;;;11.12;85.34;99386.03;6286290;22;20030;-74
2021/12/23 14:02:53;;;;;;;3.58;2.85;;;;;;;11.10;85.67;99388.28;6253010;22;20012;-74
2021/12/23 14:05:24;;;;;;;5.60;2.83;;;;;;;11.00;85.40;99357.19;6259595;22;20011;-74
2021/12/23 14:07:57;;;;;;;4.95;2.78;;;;;;;11.12;85.05;99348.53;6285401;22;20000;-75
2021/12/23 14:10:29;;;;;;;5.28;2.67;;;;;;;11.02;84.98;99347.88;6259128;22;20003;-74
2021/12/23 14:13:15;;;;;;;6.18;3.25;;;;;;;11.17;85.09;99373.13;6259817;22;20019;-74
2021/12/23 14:15:45;;;;;;;5.63;3.60;;;;;;;11.05;85.57;99352.78;6259647;22;20012;-74
2021/12/23 14:18:44;;;;;;;4.68;3.58;;;;;;;11.10;86.02;99363.66;6258080;22;20333;-74
2021/12/23 14:24:10;;;;;;;4.60;3.80;;;;;;;11.02;86.12;99358.84;6287003;22;20015;-76
2021/12/23 14:26:36;;;;;;;6.00;5.13;;;;;;;10.99;86.25;99355.59;6259500;22;20007;-74
2021/12/23 14:29:15;;;;;;;4.60;4.03;;;;;;;11.05;86.31;99356.31;6233165;22;20528;-75
2021/12/23 14:31:44;;;;;;;8.70;4.57;;;;;;;11.04;85.33;99348.41;6256090;22;20010;-73
2021/12/23 14:34:13;;;;;;;7.40;4.13;;;;;;;11.09;85.91;99359.28;6256376;22;20053;-74
2021/12/23 14:36:46;;;;;;;4.45;4.03;;;;;;;11.13;86.24;99354.84;6254017;22;20003;-74
2021/12/23 14:39:21;;;;;;;4.22;3.83;;;;;;;11.20;86.03;99359.94;6253254;22;19999;-73
2021/12/23 14:41:51;;;;;;;4.22;3.92;;;;;;;11.25;86.10;99368.88;6283163;22;20004;-75
2021/12/23 14:44:23;;;;;;;4.55;4.15;;;;;;;11.23;85.89;99371.13;6283690;22;19999;-74
2021/12/23 14:46:56;;;;;;;8.57;4.13;;;;;;;11.28;85.76;99360.09;6232604;22;20008;-71
2021/12/23 14:49:55;;;;;;;4.13;3.80;;;;;;;11.37;85.44;99364.91;6256689;22;20047;-73
2021/12/23 14:52:29;;;;;;;3.50;3.30;;;;;;;11.45;85.29;99377.91;6258582;22;20053;-72
2021/12/23 14:54:59;;;;;;;7.00;3.92;;;;;;;11.44;85.18;99377.09;6283409;22;20363;-72
2021/12/23 14:57:43;;;;;;;4.88;3.85;;;;;;;11.34;85.58;99361.63;6284770;22;19996;-73
2021/12/23 15:00:31;;;;;;;;;;;;;;;;;;;;;
2021/12/23 15:03:25;;;;;;;3.92;3.50;;;;;;;11.51;85.60;99383.00;6287072;22;20030;-75
2021/12/23 15:05:53;;;;;;;4.07;3.70;;;;;;;11.50;85.30;99375.09;6250886;22;20007;-73
2021/12/23 15:08:27;;;;;;;6.75;2.88;;;;;;;11.59;84.99;99388.91;6258654;22;20004;-74
2021/12/23 15:10:58;;;;;;;3.00;2.75;;;;;;;11.53;84.88;99390.91;6258540;22;19996;-74
2021/12/23 15:13:28;;;;;;;3.95;3.65;;;;;;;11.63;84.97;99390.75;6284591;22;20031;-75
2021/12/23 15:15:55;;;;;;;6.43;3.03;;;;;;;11.58;85.19;99376.31;6285893;22;19996;-73
2021/12/23 15:18:58;;;;;;;4.55;3.67;;;;;;;11.58;85.28;99377.16;6286551;22;20026;-74
2021/12/23 15:21:39;;;;;;;4.80;2.60;;;;;;;11.61;85.62;99387.50;6284118;22;20108;-74
2021/12/23 15:24:16;;;;;;;5.45;2.90;;;;;;;11.48;85.42;99382.78;6284186;22;20010;-75
2021/12/23 15:26:53;;;;;;;4.20;2.92;;;;;;;11.57;85.37;99408.38;6282837;22;20011;-74
2021/12/23 15:29:52;;;;;;;5.38;2.90;;;;;;;11.45;86.05;99383.41;6253382;22;20004;-75
2021/12/23 15:32:24;;;;;;;2.60;2.50;;;;;;;11.54;85.62;99403.50;6280347;22;20004;-75
2021/12/23 15:35:00;;;;;;;2.45;2.25;;;;;;;11.57;85.82;99400.16;6254558;22;20685;-73
2021/12/23 15:37:49;;;;;;;3.92;2.10;;;;;;;11.68;85.97;99411.75;6255278;22;19992;-75
2021/12/23 15:40:23;;;;;;;2.67;2.50;;;;;;;11.65;85.56;99395.94;6286003;22;20188;-75
2021/12/23 15:43:04;;;;;;;4.00;3.08;;;;;;;11.55;85.40;99383.22;6261310;22;19999;-75
2021/12/23 15:48:37;;;;;;;5.43;2.47;;;;;;;11.61;86.16;99393.00;6262956;22;20095;-72
2021/12/23 15:51:05;;;;;;;2.72;2.53;;;;;;;11.62;85.83;99391.06;6236862;22;20569;-75
2021/12/23 15:53:31;;;;;;;4.90;2.40;;;;;;;11.68;85.14;99401.63;6257318;22;20442;-75
2021/12/23 15:56:09;;;;;;;2.65;2.42;;;;;;;11.70;85.75;99399.41;6251871;22;20023;-73
2021/12/23 15:58:50;;;;;;;3.22;2.25;;;;;;;11.77;85.80;99423.69;6256174;22;20008;-74
2021/12/23 16:01:27;;;;;;;4.03;2.00;;;;;;;11.70;85.53;99407.63;6257429;22;20033;-74
2021/12/23 16:04:14;;;;;;;3.35;2.05;;;;;;;11.70;85.43;99402.16;6257633;22;20052;-76
2021/12/23 16:10:00;;;;;;;1.70;1.60;;;;;;;11.90;85.04;99422.13;6286218;22;20018;-77